Time;durP1;ratioP1;P1;durP2;ratioP2;P2;SDS_P1;SDS_P2;PMS_P1;PMS_P2;Temp;Humidity;BMP_temperature;BMP_pressure;BME280_temperature;BME280_humidity;BME280_pressure;Samples;Min_cycle;Max_cycle;Signal;HPM_P1;HPM_P2
2021/11/12 04:41:41;;;;;;;;;;;;;;;17.19;58.53;101980.31;4812363;29;20050;-84
2021/11/12 06:03:04;;;;;;;7.18;6.28;;;;;;;17.18;58.88;101910.94;4811650;29;20022;-86
2021/11/12 06:19:24;;;;;;;8.02;6.40;;;;;;;17.20;58.99;101898.81;4787589;30;20066;-87
2021/11/12 07:25:55;;;;;;;13.63;9.05;;;;;;;17.37;59.16;101850.38;4829494;29;20053;-84
2021/11/12 07:28:25;;;;;;;11.45;8.05;;;;;;;17.40;59.26;101846.97;4828734;29;20023;-84
2021/11/12 07:31:15;;;;;;;13.40;8.00;;;;;;;17.40;59.23;101828.75;4828316;29;20034;-84
2021/11/12 07:33:54;;;;;;;11.68;8.10;;;;;;;17.42;59.23;101829.59;4828243;29;20488;-84
2021/11/12 07:36:33;;;;;;;14.45;7.82;;;;;;;17.43;59.05;101833.97;4812479;29;20034;-84
2021/11/12 07:39:50;;;;;;;12.90;8.02;;;;;;;17.44;59.03;101827.88;5015776;24;20053;-84
2021/11/12 07:48:04;;;;;;;15.60;8.13;;;;;;;17.50;58.88;101819.25;5617919;24;20067;-84
2021/11/12 07:50:47;;;;;;;10.68;8.00;;;;;;;17.52;58.95;101817.53;4845450;29;20074;-85
2021/11/12 08:14:27;;;;;;;20.55;8.02;;;;;;;17.73;58.31;101791.63;5159228;24;20050;-84
2021/11/12 08:43:49;;;;;;;11.55;7.32;;;;;;;17.82;58.28;101767.41;4842770;29;20034;-82
2021/11/12 08:46:44;;;;;;;10.05;7.05;;;;;;;17.82;58.40;101759.59;4815305;29;20536;-83
2021/11/12 08:49:28;;;;;;;10.38;7.07;;;;;;;17.82;58.38;101764.81;4798472;30;20050;-79
2021/11/12 08:51:54;;;;;;;9.27;6.63;;;;;;;17.83;58.65;101750.91;4801886;29;20496;-80
2021/11/12 08:54:25;;;;;;;9.70;7.28;;;;;;;17.83;58.56;101745.69;4795917;29;20038;-80
2021/11/12 08:56:52;;;;;;;11.65;7.15;;;;;;;17.84;58.52;101747.47;4780638;30;20035;-80
2021/11/12 08:59:18;;;;;;;10.13;7.32;;;;;;;17.83;58.64;101751.81;4781543;30;20535;-80
2021/11/12 09:01:45;;;;;;;10.82;7.28;;;;;;;17.85;58.39;101754.41;4796884;30;20083;-80
2021/11/12 09:04:11;;;;;;;8.90;6.97;;;;;;;17.83;58.35;101746.59;4778714;29;20070;-80
2021/11/12 09:06:37;;;;;;;9.80;6.90;;;;;;;17.81;58.24;101735.28;4799106;30;20043;-80
2021/11/12 09:09:05;;;;;;;9.60;7.00;;;;;;;17.83;58.40;101744.00;4803733;30;20032;-80
2021/11/12 09:11:31;;;;;;;9.23;7.10;;;;;;;17.84;58.32;101734.44;4786721;30;20619;-81
2021/11/12 09:14:01;;;;;;;10.95;6.97;;;;;;;17.85;58.15;101737.03;4798770;29;20051;-80
2021/11/12 09:16:46;;;;;;;11.15;6.78;;;;;;;17.86;58.30;101737.91;4784478;29;20035;-80
2021/11/12 09:19:16;;;;;;;10.07;6.88;;;;;;;17.87;58.34;101722.28;4805563;29;20038;-83
2021/11/12 09:22:02;;;;;;;9.45;7.38;;;;;;;17.86;58.41;101723.16;4824865;29;20125;-80
2021/11/12 09:24:28;;;;;;;10.05;6.63;;;;;;;17.89;58.40;101725.75;4817294;29;20042;-81
2021/11/12 09:26:54;;;;;;;9.52;6.88;;;;;;;17.90;58.37;101721.44;4817859;29;20496;-80
2021/11/12 09:29:19;;;;;;;8.82;7.07;;;;;;;17.89;58.25;101712.75;4799823;29;20039;-79
2021/11/12 09:31:48;;;;;;;8.77;6.68;;;;;;;17.92;58.21;101706.69;4799115;29;20039;-80
2021/11/12 09:34:14;;;;;;;11.35;6.85;;;;;;;17.95;58.39;101708.44;4818253;29;20114;-80
2021/11/12 09:36:56;;;;;;;10.68;6.53;;;;;;;17.90;58.29;101708.44;4838188;29;20106;-81
2021/11/12 09:39:22;;;;;;;9.02;6.30;;;;;;;17.88;58.30;101716.22;4839106;29;20041;-81
2021/11/12 09:41:48;;;;;;;7.75;5.97;;;;;;;17.87;58.38;101706.66;4838299;29;20145;-80
2021/11/12 09:44:13;;;;;;;9.52;6.57;;;;;;;17.84;58.40;101701.47;4832471;29;20038;-81
2021/11/12 09:46:39;;;;;;;8.40;6.53;;;;;;;17.84;58.64;101701.47;4833576;29;20040;-81
2021/11/12 09:49:05;;;;;;;10.20;6.93;;;;;;;17.81;58.52;101698.81;4826393;29;20037;-82
2021/11/12 09:51:31;;;;;;;9.82;7.20;;;;;;;17.83;58.33;101698.84;4836701;29;20026;-80
2021/11/12 09:53:57;;;;;;;9.82;7.10;;;;;;;17.82;58.45;101699.72;4836885;29;20023;-80
2021/11/12 09:56:23;;;;;;;8.43;6.70;;;;;;;17.78;58.52;101696.19;4822453;29;20041;-81
2021/11/12 09:58:50;;;;;;;7.70;6.57;;;;;;;17.77;58.57;101693.56;4821608;29;20034;-80
2021/11/12 10:01:24;;;;;;;8.65;6.82;;;;;;;17.77;58.70;101691.88;4819297;29;20030;-79
2021/11/12 10:03:54;;;;;;;8.30;6.78;;;;;;;17.79;58.53;101689.25;4819818;29;20186;-80
2021/11/12 10:06:46;;;;;;;8.50;6.57;;;;;;;17.82;58.48;101684.09;4846710;29;20030;-83
2021/11/12 10:09:20;;;;;;;8.70;6.75;;;;;;;17.87;58.25;101678.00;4838688;29;20037;-84
2021/11/12 10:11:49;;;;;;;9.77;6.95;;;;;;;17.90;58.28;101679.78;4816995;29;20507;-80
2021/11/12 10:14:24;;;;;;;12.48;6.97;;;;;;;17.91;58.31;101678.03;4828583;29;20075;-79
2021/11/12 10:16:58;;;;;;;10.02;7.10;;;;;;;17.89;58.43;101673.69;4814053;29;20079;-80
2021/11/12 10:19:25;;;;;;;;;;;;;;;17.86;58.48;101667.63;4803753;29;20038;-80
2021/11/12 10:21:54;;;;;;;10.30;7.07;;;;;;;17.88;58.28;101660.69;4817922;29;19917;-80
2021/11/12 10:24:34;;;;;;;10.73;7.07;;;;;;;17.91;58.33;101652.00;4816512;29;20026;-80
2021/11/12 10:27:19;;;;;;;10.00;7.60;;;;;;;17.92;58.41;101639.00;4829480;29;20058;-79
2021/11/12 10:29:51;;;;;;;9.75;7.72;;;;;;;17.97;58.16;101636.41;4831681;29;20030;-80
2021/11/12 10:32:20;;;;;;;9.27;7.28;;;;;;;17.99;58.23;101637.28;4816739;29;20041;-80
2021/11/12 10:34:48;;;;;;;8.93;7.13;;;;;;;17.98;58.19;101622.50;4831177;29;20564;-80
2021/11/12 10:37:21;;;;;;;9.25;7.35;;;;;;;17.98;57.93;101620.75;4830807;29;20388;-80
2021/11/12 10:39:57;;;;;;;10.57;7.20;;;;;;;18.00;57.81;101616.41;4829218;29;20033;-79
2021/11/12 10:42:29;;;;;;;10.10;7.28;;;;;;;18.04;58.17;101614.69;4828693;29;20042;-79
2021/11/12 10:44:57;;;;;;;9.25;6.95;;;;;;;18.05;57.84;101606.88;4824606;29;20030;-84
2021/11/12 10:48:18;;;;;;;9.68;7.97;;;;;;;18.03;58.11;101600.81;4845424;29;20018;-85
2021/11/12 10:51:24;;;;;;;9.35;7.38;;;;;;;18.06;58.06;101595.59;4826664;29;20035;-85
2021/11/12 10:57:28;;;;;;;10.23;6.80;;;;;;;18.04;58.26;101576.50;4817206;29;20111;-79
2021/11/12 10:59:57;;;;;;;9.15;7.38;;;;;;;18.04;57.90;101573.03;4832649;29;20060;-79
2021/11/12 11:02:28;;;;;;;9.60;7.70;;;;;;;18.03;58.31;101566.94;4813189;29;20038;-79
2021/11/12 11:08:37;;;;;;;7.72;6.63;;;;;;;18.08;58.07;101561.75;4847205;29;20037;-82
2021/11/12 11:15:02;;;;;;;9.15;6.82;;;;;;;18.08;57.95;101556.53;4866147;24;20080;31
2021/11/12 11:17:31;;;;;;;8.55;7.35;;;;;;;18.07;57.97;101552.19;4827865;29;20092;-85
2021/11/12 11:19:56;;;;;;;8.93;6.75;;;;;;;18.08;57.92;101553.94;4829408;29;20038;-84
2021/11/12 11:22:24;;;;;;;8.00;6.85;;;;;;;18.08;57.85;101553.94;4812887;29;20030;-84
2021/11/12 11:24:52;;;;;;;9.32;6.65;;;;;;;18.08;57.95;101554.78;4814163;29;20019;-81
2021/11/12 11:27:21;;;;;;;9.93;6.97;;;;;;;18.08;57.92;101538.31;4814140;29;20043;-85
2021/11/12 11:29:51;;;;;;;9.27;7.03;;;;;;;18.07;57.98;101531.34;4814099;29;20038;-84
2021/11/12 11:32:16;;;;;;;8.98;6.90;;;;;;;18.08;58.00;101531.34;4811393;29;20071;-80
2021/11/12 11:34:45;;;;;;;8.40;6.63;;;;;;;18.08;57.84;101520.94;4777730;29;20485;-80
2021/11/12 11:37:10;;;;;;;8.30;6.65;;;;;;;18.09;57.95;101516.56;4795385;29;20039;-80
2021/11/12 11:39:36;;;;;;;7.60;6.40;;;;;;;18.07;57.84;101514.00;4813145;29;20082;-80
2021/11/12 11:42:04;;;;;;;7.00;5.85;;;;;;;18.08;58.12;101507.91;4796328;29;20042;-80
2021/11/12 11:44:29;;;;;;;9.73;7.05;;;;;;;18.08;57.95;101497.50;4781678;29;20544;-79
2021/11/12 11:46:59;;;;;;;7.47;6.60;;;;;;;18.09;57.89;101493.13;4795851;29;20126;-79
2021/11/12 11:49:26;;;;;;;8.75;6.60;;;;;;;18.07;57.66;101498.38;4780891;29;20034;-80
2021/11/12 11:51:55;;;;;;;7.95;6.47;;;;;;;18.06;57.92;101486.19;4780029;29;20027;-79
2021/11/12 11:54:23;;;;;;;8.57;6.95;;;;;;;18.07;58.00;101477.53;4794354;29;20508;-79
2021/11/12 11:56:57;;;;;;;7.75;6.30;;;;;;;18.07;57.97;101474.03;4809539;29;20159;-79
2021/11/12 11:59:37;;;;;;;9.02;6.80;;;;;;;18.06;57.84;101474.91;4809963;29;20385;-79
2021/11/12 12:02:05;;;;;;;9.10;6.85;;;;;;;18.06;58.01;101475.78;4795219;29;20387;-80
2021/11/12 12:04:40;;;;;;;8.55;6.68;;;;;;;18.06;57.98;101474.91;4811320;29;20091;-79
2021/11/12 12:07:17;;;;;;;7.93;6.90;;;;;;;18.05;57.91;101471.47;4809896;29;20463;-80
2021/11/12 12:09:49;;;;;;;7.75;6.75;;;;;;;18.04;58.02;101472.31;4810412;29;20031;-80
2021/11/12 12:12:30;;;;;;;7.30;6.32;;;;;;;18.04;58.16;101477.53;4814741;29;20030;-81
2021/11/12 12:15:21;;;;;;;7.43;6.18;;;;;;;18.04;58.08;101471.44;4812605;29;20031;-80
2021/11/12 12:17:48;;;;;;;7.43;6.72;;;;;;;18.02;58.04;101458.41;4814952;29;20069;-80
2021/11/12 22:31:04;;;;;;;5.03;4.20;;;;;;;17.56;63.47;100879.88;4924802;24;20062;-82
2021/11/12 22:46:07;;;;;;;6.88;4.88;;;;;;;17.57;63.66;100871.19;5729788;24;20034;-82
2021/11/12 22:48:34;;;;;;;5.95;4.80;;;;;;;17.56;63.50;100866.84;4829635;29;20044;-82
2021/11/12 22:51:01;;;;;;;8.65;4.38;;;;;;;17.56;63.95;100853.84;4828633;29;20026;-82
2021/11/12 22:53:28;;;;;;;5.45;4.40;;;;;;;17.55;63.46;100865.13;4843143;29;20026;-80
2021/11/12 22:55:54;;;;;;;7.10;4.68;;;;;;;17.54;63.75;100850.41;4828781;29;20038;-82
2021/11/12 22:58:32;;;;;;;5.78;4.60;;;;;;;17.55;63.81;100846.91;4821111;29;20094;-82
2021/11/12 23:01:17;;;;;;;5.93;4.40;;;;;;;17.57;63.73;100850.34;4830060;29;20043;-82
2021/11/12 23:03:47;;;;;;;5.80;4.40;;;;;;;17.53;63.71;100851.25;4814405;29;20499;-81
2021/11/12 23:06:22;;;;;;;9.05;4.85;;;;;;;17.55;63.36;100852.09;4845880;29;20030;-82
2021/11/12 23:08:49;;;;;;;6.68;4.90;;;;;;;17.56;63.57;100856.44;4827518;29;20030;-82
2021/11/12 23:11:17;;;;;;;6.13;4.80;;;;;;;17.53;63.68;100838.25;4813178;29;20034;-83
2021/11/12 23:17:10;;;;;;;4.88;4.30;;;;;;;17.54;63.85;100848.66;4842564;29;20118;-82
2021/11/12 23:19:41;;;;;;;5.82;4.68;;;;;;;17.52;63.67;100840.00;4812537;29;20033;-81
2021/11/12 23:25:30;;;;;;;5.15;4.18;;;;;;;17.52;63.81;100837.41;4843816;29;20094;-82
2021/11/12 23:27:58;;;;;;;7.13;4.50;;;;;;;17.53;63.61;100835.66;4843431;29;20027;-82
2021/11/12 23:30:36;;;;;;;6.15;4.28;;;;;;;17.53;63.71;100838.25;4826678;29;20033;-82
2021/11/12 23:33:04;;;;;;;6.68;4.22;;;;;;;17.52;63.78;100832.19;4847326;29;20026;-81
2021/11/12 23:35:29;;;;;;;5.38;4.40;;;;;;;17.52;63.90;100839.13;4831651;29;20045;-81
2021/11/12 23:37:55;;;;;;;6.18;4.30;;;;;;;17.53;63.76;100843.44;4830571;29;20027;-80
2021/11/12 23:40:22;;;;;;;5.15;4.47;;;;;;;17.53;63.69;100833.03;4843618;29;20051;-81
2021/11/12 23:42:51;;;;;;;5.88;4.60;;;;;;;17.54;63.84;100845.19;4844383;29;20039;-82
2021/11/12 23:45:20;;;;;;;5.40;4.35;;;;;;;17.52;64.05;100840.00;4843525;29;20098;-81
2021/11/12 23:47:48;;;;;;;6.40;4.88;;;;;;;17.52;64.11;100839.13;4845195;29;20047;-81
2021/11/12 23:50:17;;;;;;;6.57;4.45;;;;;;;17.52;63.88;100833.94;4830639;29;20039;-81
2021/11/12 23:52:43;;;;;;;5.43;4.60;;;;;;;17.52;64.00;100831.34;4843346;29;20050;-81
2021/11/12 23:55:10;;;;;;;6.57;4.90;;;;;;;17.51;64.02;100830.47;4845046;29;20030;-82
